Time;durP1;ratioP1;P1;durP2;ratioP2;P2;SDS_P1;SDS_P2;PMS_P1;PMS_P2;Temp;Humidity;BMP_temperature;BMP_pressure;BME280_temperature;BME280_humidity;BME280_pressure;Samples;Min_cycle;Max_cycle;Signal;HPM_P1;HPM_P2
2021/12/03 00:00:40;;;;;;;3.92;0.80;;;0.80;99.90;;;;;;5049344;28;20044;-66
2021/12/03 00:03:07;;;;;;;4.55;1.08;;;0.90;99.90;;;;;;5051485;28;20067;-67
2021/12/03 00:05:33;;;;;;;1.50;0.80;;;0.80;99.90;;;;;;5051758;28;20049;-66
2021/12/03 00:07:59;;;;;;;1.63;0.75;;;0.80;99.90;;;;;;5051949;28;20120;-66
2021/12/03 00:10:26;;;;;;;3.58;1.20;;;0.80;99.90;;;;;;5053705;28;20040;-66
2021/12/03 00:12:54;;;;;;;1.95;1.00;;;0.90;99.90;;;;;;5052382;28;20223;-66
2021/12/03 00:15:23;;;;;;;2.92;0.68;;;1.00;99.90;;;;;;5052504;28;20060;-66
2021/12/03 00:17:49;;;;;;;4.35;1.08;;;0.90;99.90;;;;;;5051288;28;20060;-66
2021/12/03 00:20:16;;;;;;;6.18;0.82;;;1.00;99.90;;;;;;5052440;28;20403;-66
2021/12/03 00:22:44;;;;;;;1.52;0.65;;;1.00;99.90;;;;;;5053336;28;20483;-66
2021/12/03 00:25:09;;;;;;;1.65;0.80;;;1.10;99.90;;;;;;5052772;28;20483;-66
2021/12/03 00:27:35;;;;;;;1.15;0.70;;;1.00;99.90;;;;;;5052030;28;20056;-66
2021/12/03 00:30:01;;;;;;;3.25;1.27;;;1.10;99.90;;;;;;5045792;28;20488;-66
2021/12/03 00:32:27;;;;;;;3.25;0.68;;;1.10;99.90;;;;;;5063768;28;20076;-66
2021/12/03 00:34:52;;;;;;;2.50;1.10;;;1.10;99.90;;;;;;5069590;28;20084;-66
2021/12/03 00:37:18;;;;;;;2.55;0.60;;;1.20;99.90;;;;;;5073296;28;20045;-66
2021/12/03 00:39:44;;;;;;;17.30;1.67;;;1.20;99.90;;;;;;5071399;28;20600;-66
2021/12/03 00:42:14;;;;;;;3.30;0.60;;;1.20;99.90;;;;;;5071768;28;20052;-66
2021/12/03 00:44:40;;;;;;;3.50;1.10;;;1.10;99.90;;;;;;5071722;28;20510;-66
2021/12/03 00:47:05;;;;;;;1.63;1.02;;;1.10;99.90;;;;;;5070902;28;20075;-66
2021/12/03 00:49:31;;;;;;;2.25;1.17;;;1.10;99.90;;;;;;5072720;28;20445;-66
2021/12/03 00:51:56;;;;;;;5.05;1.10;;;1.10;99.90;;;;;;5072793;28;20060;-66
2021/12/03 00:54:22;;;;;;;3.92;1.33;;;1.10;99.90;;;;;;5072238;28;20113;-66
2021/12/03 00:56:48;;;;;;;3.70;1.08;;;1.10;99.90;;;;;;5071068;28;20569;-66
2021/12/03 00:59:14;;;;;;;9.05;0.75;;;1.10;99.90;;;;;;5071480;28;20410;-66
2021/12/03 01:01:39;;;;;;;2.92;1.10;;;1.10;99.90;;;;;;5070640;28;20053;-66
2021/12/03 01:04:06;;;;;;;2.40;1.10;;;1.10;99.90;;;;;;5072980;28;20036;-66
2021/12/03 01:06:31;;;;;;;1.58;0.85;;;1.10;99.90;;;;;;5070983;28;20574;-66
2021/12/03 01:08:57;;;;;;;1.48;0.90;;;1.00;99.90;;;;;;5070702;28;20135;-66
2021/12/03 01:11:23;;;;;;;3.03;1.20;;;1.20;99.90;;;;;;5072082;28;20060;-66
2021/12/03 01:13:50;;;;;;;1.77;0.82;;;0.90;99.90;;;;;;5070482;28;20053;-66
2021/12/03 01:16:18;;;;;;;3.30;1.00;;;0.90;99.90;;;;;;5071868;28;20668;-66
2021/12/03 01:18:45;;;;;;;4.75;1.35;;;0.80;99.90;;;;;;5072309;28;20176;-66
2021/12/03 01:21:11;;;;;;;4.78;1.20;;;0.80;99.90;;;;;;5070282;28;20061;-66
2021/12/03 01:23:38;;;;;;;3.80;1.10;;;0.80;99.90;;;;;;5070760;28;20059;-66
2021/12/03 01:26:04;;;;;;;1.70;1.17;;;0.80;99.90;;;;;;5071128;28;20048;-66
2021/12/03 01:28:30;;;;;;;3.25;1.05;;;0.70;99.90;;;;;;5069926;28;20514;-66
2021/12/03 01:30:56;;;;;;;5.97;1.30;;;0.80;99.90;;;;;;5070678;28;20056;-66
2021/12/03 01:33:22;;;;;;;1.33;0.93;;;0.70;99.90;;;;;;5070852;28;20058;-66
2021/12/03 01:35:48;;;;;;;3.47;1.25;;;0.70;99.90;;;;;;5069695;28;20052;-66
2021/12/03 01:38:13;;;;;;;3.10;1.20;;;0.80;99.90;;;;;;5072135;28;20044;-66
2021/12/03 01:40:40;;;;;;;4.05;1.30;;;0.70;99.90;;;;;;5070321;28;20044;-67
2021/12/03 01:43:08;;;;;;;3.33;0.75;;;0.70;99.90;;;;;;5070384;28;20534;-67
2021/12/03 01:45:37;;;;;;;4.97;1.83;;;0.80;99.90;;;;;;5070370;28;20509;-66
2021/12/03 01:48:03;;;;;;;5.22;1.17;;;0.80;99.90;;;;;;5071887;28;20070;-66
2021/12/03 01:50:41;;;;;;;2.20;1.30;;;0.80;99.90;;;;;;5069101;28;20053;-66
2021/12/03 01:53:09;;;;;;;5.03;0.80;;;0.90;99.90;;;;;;5071859;28;20582;-66
2021/12/03 01:55:36;;;;;;;3.72;1.10;;;0.80;99.90;;;;;;5069188;28;20076;-66
2021/12/03 01:58:02;;;;;;;3.40;1.48;;;0.90;99.90;;;;;;5057601;28;20466;-66
2021/12/03 02:00:31;;;;;;;1.02;0.80;;;1.90;99.90;;;;;;5063587;28;20553;-66
2021/12/03 02:02:58;;;;;;;2.70;1.42;;;0.90;99.90;;;;;;5050450;28;20049;-66
2021/12/03 02:05:24;;;;;;;4.22;1.65;;;0.90;99.90;;;;;;5050763;28;20049;-66
2021/12/03 02:07:50;;;;;;;2.20;0.73;;;0.90;99.90;;;;;;5051196;28;20535;-66
2021/12/03 02:10:19;;;;;;;2.45;0.90;;;1.00;99.90;;;;;;5050827;28;20057;-66
2021/12/03 02:12:45;;;;;;;1.90;0.95;;;1.00;99.90;;;;;;5049803;28;20049;-66
2021/12/03 02:15:12;;;;;;;1.67;1.13;;;1.00;99.90;;;;;;5051663;28;20171;-66
2021/12/03 02:17:38;;;;;;;1.10;0.70;;;1.00;99.90;;;;;;5049319;28;20460;-66
2021/12/03 02:20:06;;;;;;;5.50;0.73;;;1.10;99.90;;;;;;5051202;28;20079;-67
2021/12/03 02:22:32;;;;;;;1.42;0.45;;;1.00;99.90;;;;;;5051103;28;20093;-66
2021/12/03 02:24:57;;;;;;;1.90;0.57;;;1.00;99.90;;;;;;5049134;28;20048;-66
2021/12/03 02:27:23;;;;;;;2.33;0.45;;;1.10;99.90;;;;;;5051281;28;20098;-67
2021/12/03 02:29:49;;;;;;;2.40;0.60;;;1.10;99.90;;;;;;5049540;28;20205;-66
2021/12/03 02:32:14;;;;;;;3.22;1.48;;;1.00;99.90;;;;;;5049296;28;20475;-66
2021/12/03 02:34:40;;;;;;;1.70;0.52;;;1.10;99.90;;;;;;5049247;28;20525;-66
2021/12/03 02:37:06;;;;;;;1.08;0.40;;;1.10;99.90;;;;;;5051144;28;20047;-66
2021/12/03 02:39:32;;;;;;;1.95;0.50;;;1.10;99.90;;;;;;5053231;28;20094;-66
2021/12/03 02:41:57;;;;;;;4.30;0.80;;;1.10;99.90;;;;;;5057930;28;20041;-66
2021/12/03 02:44:23;;;;;;;2.97;0.60;;;1.10;99.90;;;;;;5059083;28;20055;-66
2021/12/03 02:46:49;;;;;;;4.90;0.70;;;1.10;99.90;;;;;;5068234;28;20114;-66
2021/12/03 02:49:15;;;;;;;4.20;0.70;;;1.10;99.90;;;;;;5050586;28;20052;-66
2021/12/03 02:51:44;;;;;;;2.20;0.55;;;1.10;99.90;;;;;;5050428;28;20053;-66
2021/12/03 02:54:10;;;;;;;5.10;0.75;;;1.00;99.90;;;;;;5048979;28;20060;-66
2021/12/03 02:56:36;;;;;;;2.00;0.77;;;1.00;99.90;;;;;;5050362;28;20515;-66
2021/12/03 02:59:03;;;;;;;2.15;0.68;;;1.00;99.90;;;;;;5049496;28;20578;-66
2021/12/03 03:01:29;;;;;;;4.60;0.88;;;1.00;99.90;;;;;;5049603;28;20053;-66
2021/12/03 03:03:54;;;;;;;1.55;0.65;;;1.00;99.90;;;;;;5050301;28;20051;-66
2021/12/03 03:06:20;;;;;;;8.48;0.75;;;1.20;99.90;;;;;;5050537;28;20055;-66
2021/12/03 03:08:47;;;;;;;2.85;1.00;;;0.90;99.90;;;;;;5049524;28;20049;-66
2021/12/03 03:11:14;;;;;;;3.53;0.70;;;0.90;99.90;;;;;;5050355;28;20558;-66
2021/12/03 03:13:39;;;;;;;2.40;1.15;;;1.00;99.90;;;;;;5049369;28;20041;-66
2021/12/03 03:16:05;;;;;;;1.73;0.90;;;1.00;99.90;;;;;;5050337;28;20218;-66
2021/12/03 03:18:31;;;;;;;2.42;0.98;;;1.00;99.90;;;;;;5048701;28;20048;-66
2021/12/03 03:21:00;;;;;;;4.30;1.42;;;1.00;99.90;;;;;;5048553;28;20048;-66
2021/12/03 03:23:26;;;;;;;4.50;1.10;;;1.00;99.90;;;;;;5050201;28;20055;-66
2021/12/03 03:25:53;;;;;;;2.08;0.95;;;1.10;99.90;;;;;;5050049;28;20053;-66
2021/12/03 03:28:20;;;;;;;3.50;1.20;;;1.10;99.90;;;;;;5049612;28;20115;-66
2021/12/03 03:30:48;;;;;;;10.45;1.25;;;1.10;99.90;;;;;;5049851;28;20048;-66
2021/12/03 03:33:15;;;;;;;5.70;1.20;;;1.30;99.90;;;;;;5048829;28;20049;-66
2021/12/03 03:35:41;;;;;;;5.43;1.77;;;1.00;99.90;;;;;;5051497;28;20056;-66
2021/12/03 03:38:06;;;;;;;8.10;1.20;;;1.10;99.90;;;;;;5055390;28;20049;-66
2021/12/03 03:40:32;;;;;;;3.63;1.90;;;1.10;99.90;;;;;;5055116;28;20060;-66
2021/12/03 03:43:00;;;;;;;3.83;1.48;;;1.10;99.90;;;;;;5055907;28;20080;-66
2021/12/03 03:45:27;;;;;;;5.20;1.50;;;1.10;99.90;;;;;;5055288;28;20048;-66
2021/12/03 03:47:52;;;;;;;11.98;2.28;;;1.10;99.90;;;;;;5055540;28;20098;-66
2021/12/03 03:50:19;;;;;;;5.05;1.83;;;1.20;99.90;;;;;;5054596;28;20135;-66
2021/12/03 03:52:46;;;;;;;3.90;1.52;;;1.20;99.90;;;;;;5056255;28;20053;-66
2021/12/03 03:55:14;;;;;;;3.92;1.73;;;1.10;99.90;;;;;;5056662;28;20045;-66
2021/12/03 03:57:41;;;;;;;1.92;1.23;;;1.20;99.90;;;;;;5054344;28;20139;-66
2021/12/03 04:00:11;;;;;;;2.75;2.42;;;1.20;99.90;;;;;;5055109;28;20067;-66
2021/12/03 04:02:37;;;;;;;5.45;2.60;;;1.30;99.90;;;;;;5056429;28;20164;-66
2021/12/03 04:05:03;;;;;;;6.10;3.20;;;1.20;99.90;;;;;;5054484;28;20052;-66
2021/12/03 04:07:29;;;;;;;5.97;4.20;;;1.20;99.90;;;;;;5056251;28;20053;-66
2021/12/03 04:09:55;;;;;;;6.05;4.25;;;1.30;99.90;;;;;;5055946;28;20055;-66
2021/12/03 04:12:20;;;;;;;9.10;6.07;;;1.40;99.90;;;;;;5056539;28;20052;-66
2021/12/03 04:14:46;;;;;;;9.70;6.40;;;1.30;99.90;;;;;;5056160;28;20132;-66
2021/12/03 04:17:11;;;;;;;11.02;7.20;;;1.30;99.90;;;;;;5055882;28;20804;-66
2021/12/03 04:19:37;;;;;;;14.50;8.85;;;1.30;99.90;;;;;;5056249;28;20119;-66
2021/12/03 04:22:04;;;;;;;13.90;9.82;;;1.30;99.90;;;;;;5056385;28;20490;-66
2021/12/03 04:24:30;;;;;;;15.40;10.32;;;1.30;99.90;;;;;;5054227;28;20045;-66
2021/12/03 04:26:55;;;;;;;18.83;13.60;;;1.30;99.90;;;;;;5055126;28;20143;-66
2021/12/03 04:29:21;;;;;;;22.60;11.35;;;1.40;99.90;;;;;;5054835;28;20041;-66
2021/12/03 04:31:47;;;;;;;18.70;12.52;;;1.30;99.90;;;;;;5056883;28;20066;-66
2021/12/03 04:34:12;;;;;;;19.80;12.55;;;1.40;99.90;;;;;;5063781;28;20052;-66
2021/12/03 04:36:38;;;;;;;21.45;12.43;;;1.30;99.90;;;;;;5074778;28;20052;-66
2021/12/03 04:39:04;;;;;;;17.63;11.70;;;1.40;99.90;;;;;;5075622;28;20045;-66
2021/12/03 04:41:29;;;;;;;20.48;11.20;;;1.30;99.90;;;;;;5075937;28;20048;-66
2021/12/03 04:43:55;;;;;;;18.85;12.43;;;1.40;99.90;;;;;;5075154;28;20143;-66
2021/12/03 04:46:22;;;;;;;23.30;12.82;;;1.30;99.90;;;;;;5073024;28;20044;-66
2021/12/03 04:48:48;;;;;;;106.10;18.83;;;1.30;99.90;;;;;;5071455;28;20045;-66
2021/12/03 04:51:14;;;;;;;18.15;12.38;;;1.30;99.90;;;;;;5072766;28;20061;-66
2021/12/03 04:53:40;;;;;;;21.15;12.90;;;1.30;99.90;;;;;;5072041;28;20044;-67
2021/12/03 04:56:06;;;;;;;18.20;12.93;;;1.40;99.90;;;;;;5071786;28;20040;-66
2021/12/03 04:58:31;;;;;;;17.92;12.82;;;1.20;99.90;;;;;;5072483;28;20075;-66
2021/12/03 05:00:59;;;;;;;22.60;14.82;;;1.20;99.90;;;;;;5072278;28;20076;-66
2021/12/03 05:03:26;;;;;;;20.20;12.75;;;1.30;99.90;;;;;;5072793;28;20048;-66
2021/12/03 05:05:55;;;;;;;24.08;13.52;;;1.20;99.90;;;;;;5072677;28;20518;-66
2021/12/03 05:08:22;;;;;;;21.88;13.75;;;1.20;99.90;;;;;;5072037;28;20087;-66
2021/12/03 05:10:48;;;;;;;18.35;12.07;;;1.20;99.90;;;;;;5070967;28;20052;-66
2021/12/03 05:13:23;;;;;;;17.35;12.00;;;1.30;99.90;;;;;;5061947;28;20040;-67
2021/12/03 05:15:49;;;;;;;18.77;13.00;;;1.30;99.90;;;;;;5045149;28;20105;-66
2021/12/03 05:18:18;;;;;;;19.00;12.95;;;1.30;99.90;;;;;;5054182;28;20056;-66
2021/12/03 05:20:46;;;;;;;20.60;12.80;;;1.20;99.90;;;;;;5070354;28;20087;-66
2021/12/03 05:23:13;;;;;;;21.38;15.73;;;1.30;99.90;;;;;;5071242;28;20052;-66
2021/12/03 05:25:39;;;;;;;21.63;13.52;;;1.30;99.90;;;;;;5072510;28;20055;-66
2021/12/03 05:28:05;;;;;;;20.42;14.18;;;1.30;99.90;;;;;;5071661;28;20056;-66
2021/12/03 05:30:31;;;;;;;16.75;11.95;;;1.30;99.90;;;;;;5072039;28;20051;-66
2021/12/03 05:32:58;;;;;;;14.45;10.75;;;1.40;99.90;;;;;;5072303;28;20047;-66
2021/12/03 05:35:25;;;;;;;17.20;11.73;;;1.30;99.90;;;;;;5066104;28;20059;-66
2021/12/03 05:37:50;;;;;;;17.42;12.35;;;1.30;99.90;;;;;;5051276;28;20075;-66
2021/12/03 05:40:16;;;;;;;16.88;12.38;;;1.50;99.90;;;;;;5056723;28;20080;-66
2021/12/03 05:42:44;;;;;;;23.02;14.07;;;1.30;99.90;;;;;;5071281;28;20063;-66
2021/12/03 05:45:12;;;;;;;18.92;13.48;;;1.40;99.90;;;;;;5072075;28;20044;-66
2021/12/03 05:47:38;;;;;;;17.70;11.05;;;1.30;99.90;;;;;;5070268;28;20086;-66
2021/12/03 05:50:05;;;;;;;18.55;12.95;;;1.30;99.90;;;;;;5069780;28;20088;-66
2021/12/03 05:52:31;;;;;;;19.23;12.90;;;1.30;99.90;;;;;;5071240;28;20071;-66
2021/12/03 05:54:57;;;;;;;17.33;12.57;;;1.30;99.90;;;;;;5071873;28;20820;-66
2021/12/03 05:57:23;;;;;;;15.73;12.68;;;1.20;99.90;;;;;;5071150;28;20066;-66
2021/12/03 05:59:49;;;;;;;16.65;11.93;;;1.30;99.90;;;;;;5071196;28;20056;-66
2021/12/03 06:02:14;;;;;;;16.13;12.65;;;1.30;99.90;;;;;;5070039;28;20060;-66
2021/12/03 06:04:40;;;;;;;16.50;12.65;;;1.30;99.90;;;;;;5069741;28;20411;-66
2021/12/03 06:07:06;;;;;;;19.55;12.57;;;1.30;99.90;;;;;;5071395;28;20136;-66
2021/12/03 06:09:31;;;;;;;17.95;14.02;;;1.30;99.90;;;;;;5069010;28;20051;-66
2021/12/03 06:11:59;;;;;;;22.70;15.55;;;1.30;99.90;;;;;;5066613;28;20500;-66
2021/12/03 06:14:24;;;;;;;17.75;12.70;;;1.30;99.90;;;;;;5059828;28;20052;-66
2021/12/03 06:16:50;;;;;;;13.98;11.00;;;1.30;99.90;;;;;;5051440;28;20033;-66
2021/12/03 06:19:16;;;;;;;15.75;13.40;;;1.30;99.90;;;;;;5050408;28;20087;-66
2021/12/03 06:21:41;;;;;;;18.52;13.07;;;1.40;99.90;;;;;;5050758;28;20045;-66
2021/12/03 06:24:07;;;;;;;20.85;15.05;;;1.30;99.90;;;;;;5062016;28;20505;-66
2021/12/03 06:26:32;;;;;;;17.75;13.43;;;1.30;99.90;;;;;;5058081;28;20411;-66
2021/12/03 06:28:58;;;;;;;20.40;13.18;;;1.30;99.90;;;;;;5058348;28;20411;-66
2021/12/03 06:31:24;;;;;;;23.30;14.40;;;1.50;99.90;;;;;;5056903;28;20153;-66
2021/12/03 06:33:50;;;;;;;16.15;12.50;;;1.50;99.90;;;;;;5070686;28;20047;-66
2021/12/03 06:36:16;;;;;;;18.48;12.65;;;1.60;99.90;;;;;;5069513;28;20060;-66
2021/12/03 06:38:42;;;;;;;19.38;12.90;;;1.60;99.90;;;;;;5070163;28;20032;-66
2021/12/03 06:41:08;;;;;;;29.02;14.02;;;1.60;99.90;;;;;;5069850;28;20052;-66
2021/12/03 06:43:34;;;;;;;14.98;12.48;;;1.60;99.90;;;;;;5070502;28;20402;-66
2021/12/03 06:46:00;;;;;;;20.30;13.85;;;1.60;99.90;;;;;;5068723;28;20048;-66
2021/12/03 06:48:25;;;;;;;16.52;13.50;;;1.80;99.90;;;;;;5059300;28;20376;-66
2021/12/03 06:50:52;;;;;;;19.13;14.93;;;1.70;99.90;;;;;;5053493;28;20057;-66
2021/12/03 06:53:20;;;;;;;39.08;15.98;;;1.60;99.90;;;;;;5069715;28;20056;-66
2021/12/03 06:55:48;;;;;;;20.17;12.80;;;1.70;99.90;;;;;;5069090;28;20487;-67
2021/12/03 06:58:18;;;;;;;19.48;12.85;;;1.60;99.90;;;;;;5069419;28;20059;-67
2021/12/03 07:00:49;;;;;;;18.55;13.65;;;1.60;99.90;;;;;;5058014;28;20142;-66
2021/12/03 07:03:15;;;;;;;17.92;12.85;;;1.60;99.90;;;;;;5050113;28;20737;-66
2021/12/03 07:05:41;;;;;;;19.55;12.93;;;1.60;99.90;;;;;;5049517;28;20045;-66
2021/12/03 07:08:07;;;;;;;22.08;12.18;;;1.70;99.90;;;;;;5049355;28;20037;-66
2021/12/03 07:10:33;;;;;;;15.48;12.38;;;1.70;99.90;;;;;;5049398;28;20487;-66
2021/12/03 07:12:59;;;;;;;23.85;13.77;;;1.70;99.90;;;;;;5049871;28;20069;-66
2021/12/03 07:15:25;;;;;;;16.75;12.48;;;1.70;99.90;;;;;;5050396;28;20459;-67
2021/12/03 07:17:51;;;;;;;18.35;12.05;;;1.80;99.90;;;;;;5049018;28;20518;-66
2021/12/03 07:20:20;;;;;;;15.40;11.65;;;1.90;99.90;;;;;;5048345;28;20139;-66
2021/12/03 07:22:46;;;;;;;18.75;12.65;;;1.80;99.90;;;;;;5049990;28;20284;-66
2021/12/03 07:25:12;;;;;;;17.02;11.27;;;1.90;99.90;;;;;;5057927;28;20373;-66
2021/12/03 07:27:38;;;;;;;16.80;9.85;;;1.90;99.90;;;;;;5049839;28;20047;-66
2021/12/03 07:30:05;;;;;;;14.35;10.00;;;1.90;99.90;;;;;;5050028;28;20099;-66
2021/12/03 07:32:31;;;;;;;15.88;8.57;;;2.00;99.90;;;;;;5048369;28;20060;-66
2021/12/03 07:34:58;;;;;;;14.15;8.38;;;2.20;99.90;;;;;;5048012;28;20173;-66
2021/12/03 07:37:24;;;;;;;14.40;8.35;;;2.10;99.90;;;;;;5050239;28;20047;-66
2021/12/03 07:39:50;;;;;;;13.23;9.00;;;2.10;99.90;;;;;;5049794;28;20057;-66
2021/12/03 07:42:15;;;;;;;17.50;8.75;;;2.20;99.90;;;;;;5053052;28;20045;-67
2021/12/03 07:44:42;;;;;;;11.75;7.55;;;2.20;99.90;;;;;;5053399;28;20045;-66
2021/12/03 07:47:08;;;;;;;9.48;5.85;;;2.20;99.90;;;;;;5069961;28;20049;-66
2021/12/03 07:49:34;;;;;;;13.02;5.95;;;2.20;99.90;;;;;;5067529;28;20406;-66
2021/12/03 07:52:00;;;;;;;16.75;6.18;;;2.30;99.90;;;;;;5069726;28;20056;-66
2021/12/03 07:54:26;;;;;;;10.88;5.72;;;2.40;99.90;;;;;;5070195;28;20098;-67
2021/12/03 07:56:51;;;;;;;10.65;6.65;;;2.40;99.90;;;;;;5068764;28;20101;-67
2021/12/03 07:59:17;;;;;;;8.32;4.60;;;2.40;99.90;;;;;;5055317;28;20085;-67
2021/12/03 08:01:45;;;;;;;9.40;5.63;;;2.50;99.90;;;;;;5048140;28;20059;-66
2021/12/03 08:04:11;;;;;;;12.65;5.78;;;2.50;99.90;;;;;;5056099;28;20056;-66
2021/12/03 08:06:39;;;;;;;14.40;5.13;;;2.60;99.90;;;;;;5056086;28;20107;-67
2021/12/03 08:09:08;;;;;;;10.20;4.28;;;2.60;99.90;;;;;;5043622;28;20060;-67
2021/12/03 08:11:36;;;;;;;7.07;4.53;;;2.60;99.90;;;;;;5063038;28;20049;-67
2021/12/03 08:14:02;;;;;;;10.95;4.47;;;2.60;99.90;;;;;;5056646;28;20041;-67
2021/12/03 08:16:27;;;;;;;11.32;5.40;;;2.60;99.90;;;;;;5042449;28;20033;-67
2021/12/03 08:18:53;;;;;;;8.05;4.95;;;2.60;99.90;;;;;;5048093;28;20094;-66
2021/12/03 08:21:18;;;;;;;8.68;4.32;;;2.60;99.90;;;;;;5059307;28;20041;-67
2021/12/03 08:23:44;;;;;;;6.40;4.43;;;2.60;99.90;;;;;;5052611;28;20056;-67
2021/12/03 08:26:10;;;;;;;9.80;4.82;;;2.60;99.90;;;;;;5048893;28;20048;-67
2021/12/03 08:28:35;;;;;;;11.85;5.22;;;2.70;99.90;;;;;;5057317;28;20098;-67
2021/12/03 08:31:01;;;;;;;9.88;5.18;;;2.70;99.90;;;;;;5061755;28;20053;-67
2021/12/03 08:33:27;;;;;;;8.95;4.72;;;2.70;99.90;;;;;;5064394;28;20036;-67
2021/12/03 08:35:53;;;;;;;92.18;15.25;;;2.70;99.90;;;;;;5054647;28;20381;-67
2021/12/03 08:38:18;;;;;;;10.75;4.07;;;2.80;99.90;;;;;;5054528;28;20041;-67
2021/12/03 08:40:44;;;;;;;17.80;4.53;;;2.80;99.90;;;;;;5070784;28;20040;-67
2021/12/03 08:43:10;;;;;;;6.40;3.97;;;2.90;99.90;;;;;;5071816;28;20053;-67
2021/12/03 08:45:37;;;;;;;8.07;3.97;;;2.80;99.90;;;;;;5072147;28;20376;-67
2021/12/03 08:48:05;;;;;;;9.15;4.05;;;2.90;99.90;;;;;;5068296;28;20503;-66
2021/12/03 08:50:37;;;;;;;7.55;4.05;;;2.90;99.90;;;;;;5055419;28;20051;-67
2021/12/03 08:54:48;;;;;;;12.85;4.55;;;2.90;99.90;;;;;;5055450;28;20052;-67
2021/12/03 08:56:02;;;;;;;9.52;5.00;;;3.00;99.90;;;;;;5055846;28;20052;-67
2021/12/03 08:58:28;;;;;;;8.93;3.90;;;3.00;99.90;;;;;;5051021;28;20051;-67
2021/12/03 09:00:54;;;;;;;4.55;3.33;;;3.00;99.90;;;;;;5060051;28;20054;-67
2021/12/03 09:03:19;;;;;;;5.18;3.75;;;3.00;99.90;;;;;;5071741;28;20079;-67
2021/12/03 09:05:47;;;;;;;6.07;3.55;;;3.00;99.90;;;;;;5072119;28;20094;-67
2021/12/03 09:08:12;;;;;;;8.68;3.97;;;3.10;99.90;;;;;;5066318;28;20106;-67
2021/12/03 09:10:39;;;;;;;10.13;4.55;;;3.10;99.90;;;;;;5063911;28;20430;-67
2021/12/03 09:13:06;;;;;;;6.57;4.32;;;3.10;99.90;;;;;;5064341;28;20041;-67
2021/12/03 09:15:41;;;;;;;11.27;4.03;;;3.10;99.90;;;;;;5056453;28;20058;-67
2021/12/03 09:18:26;;;;;;;8.70;4.13;;;3.10;99.90;;;;;;5045160;28;20045;-69
2021/12/03 09:26:07;;;;;;;9.15;5.65;;;3.20;99.90;;;;;;5064403;28;20118;-69
2021/12/03 09:28:33;;;;;;;10.88;5.78;;;3.20;99.90;;;;;;5057611;28;20402;-70
2021/12/03 09:31:00;;;;;;;14.88;6.97;;;3.30;99.90;;;;;;5036567;28;20475;-69
2021/12/03 09:33:28;;;;;;;18.73;7.38;;;3.30;99.90;;;;;;5049354;28;20086;-70
2021/12/03 09:35:58;;;;;;;10.90;5.78;;;3.30;99.90;;;;;;5070595;28;20049;-70
2021/12/03 09:38:25;;;;;;;11.75;6.53;;;3.40;99.90;;;;;;5050526;28;20144;-69
2021/12/03 09:40:51;;;;;;;16.92;7.57;;;3.40;99.90;;;;;;5036226;28;20496;-69
2021/12/03 09:43:16;;;;;;;15.80;7.25;;;3.40;99.90;;;;;;5042682;28;20131;-70
2021/12/03 09:45:53;;;;;;;21.02;7.80;;;3.40;99.90;;;;;;5051423;28;20063;-69
2021/12/03 09:48:33;;;;;;;8.05;6.95;;;3.50;99.90;;;;;;5042364;28;20054;-70
2021/12/03 09:50:59;;;;;;;20.13;7.93;;;3.50;99.90;;;;;;5035798;28;20135;-69
2021/12/03 09:53:43;;;;;;;13.63;7.55;;;3.50;99.90;;;;;;5062743;28;20492;-69
2021/12/03 09:56:11;;;;;;;13.70;8.20;;;3.60;99.90;;;;;;5038816;28;20064;-69
2021/12/03 10:01:31;;;;;;;15.85;8.02;;;3.50;99.90;;;;;;5038385;28;20492;-69
2021/12/03 10:04:34;;;;;;;13.75;8.27;;;3.50;99.90;;;;;;5047312;28;20056;-69
2021/12/03 10:10:23;;;;;;;19.10;8.48;;;3.60;99.90;;;;;;5041117;28;20049;-69
2021/12/03 10:12:52;;;;;;;17.30;7.95;;;3.60;99.90;;;;;;5044514;28;20053;-69
2021/12/03 10:26:31;;;;;;;19.05;6.82;;;3.70;99.90;;;;;;5062759;28;20570;-69
2021/12/03 10:29:09;;;;;;;11.30;5.72;;;3.70;99.90;;;;;;5047143;28;20183;-69
2021/12/03 10:34:24;;;;;;;13.85;5.32;;;3.70;99.90;;;;;;5045216;28;20049;-69
2021/12/03 10:47:42;;;;;;;16.10;5.53;;;3.70;99.90;;;;;;5069010;28;20056;-68
2021/12/03 10:50:25;;;;;;;12.38;5.47;;;3.70;99.90;;;;;;5070636;28;20059;-68
2021/12/03 10:53:00;;;;;;;;;;;3.80;99.90;;;;;;5069989;28;20056;-68
2021/12/03 10:58:43;;;;;;;8.18;5.03;;;3.80;99.90;;;;;;5069018;28;20052;-69
2021/12/03 11:07:09;;;;;;;16.52;5.00;;;3.80;99.90;;;;;;5067243;28;20045;-69
2021/12/03 13:45:22;;;;;;;9.77;5.18;;;3.70;99.90;;;;;;5036603;28;20060;-67
2021/12/03 14:25:00;;;;;;;13.60;4.22;;;3.90;99.90;;;;;;5037073;28;20376;-69
2021/12/03 14:27:53;;;;;;;7.72;4.13;;;4.00;99.90;;;;;;5053574;28;20454;-69
2021/12/03 14:40:12;;;;;;;9.75;4.15;;;4.00;99.90;;;;;;5007937;28;20053;-69
2021/12/03 14:56:20;;;;;;;6.78;3.80;;;4.00;99.90;;;;;;5049646;28;20122;-69
2021/12/03 14:58:50;;;;;;;10.52;4.40;;;4.00;99.90;;;;;;5047040;28;20075;-69
2021/12/03 15:08:42;;;;;;;18.00;5.53;;;3.80;99.90;;;;;;5047367;28;20073;-69
2021/12/03 15:19:16;;;;;;;10.75;5.85;;;3.80;99.90;;;;;;5048826;28;20076;-69
2021/12/03 15:37:25;;;;;;;8.48;5.60;;;3.80;99.90;;;;;;5029236;28;20140;-69
2021/12/03 15:40:17;;;;;;;10.45;6.72;;;3.80;99.90;;;;;;5027154;28;20072;-69
2021/12/03 16:03:30;;;;;;;12.38;9.82;;;3.80;99.90;;;;;;5045559;28;20339;-67
2021/12/03 16:04:23;;;;;;;9.85;8.50;;;3.90;99.90;;;;;;5026167;28;20774;-67
2021/12/03 16:12:14;;;;;;;10.95;8.45;;;4.00;99.90;;;;;;5048102;28;20047;-68
2021/12/03 16:20:07;;;;;;;13.45;8.75;;;4.00;99.90;;;;;;5036907;28;20056;-68
2021/12/03 16:22:43;;;;;;;10.88;8.60;;;4.00;99.90;;;;;;5046112;28;20052;-68
2021/12/03 16:25:30;;;;;;;10.65;8.30;;;3.90;99.90;;;;;;5028776;28;20476;-67
2021/12/03 16:47:24;;;;;;;14.27;12.32;;;4.00;99.90;;;;;;5038913;28;20056;-68
2021/12/03 16:52:34;;;;;;;11.35;10.15;;;4.00;99.90;;;;;;5034970;28;20064;-68
2021/12/03 16:55:01;;;;;;;11.02;9.85;;;4.00;99.90;;;;;;5049904;28;20045;-67
2021/12/03 16:57:30;;;;;;;10.05;8.65;;;4.00;99.90;;;;;;5041876;28;20056;-67
2021/12/03 16:59:59;;;;;;;13.35;10.90;;;4.00;99.90;;;;;;5041749;28;20059;-68
2021/12/03 17:02:33;;;;;;;18.30;11.93;;;4.10;99.90;;;;;;5047757;28;20407;-67
2021/12/03 17:05:13;;;;;;;12.25;9.90;;;4.00;99.90;;;;;;5048120;28;20076;-70
2021/12/03 17:48:27;;;;;;;14.82;11.93;;;4.00;99.90;;;;;;4977079;28;20489;-70
2021/12/03 17:53:41;;;;;;;27.95;14.07;;;4.10;99.90;;;;;;5029709;28;20084;-69
2021/12/03 17:56:12;;;;;;;13.57;9.75;;;4.10;99.90;;;;;;5030363;28;20504;-69
2021/12/03 17:58:42;;;;;;;68.15;16.48;;;4.10;99.90;;;;;;5029566;28;20046;-69
2021/12/03 18:01:19;;;;;;;18.35;12.27;;;4.10;99.90;;;;;;5029504;28;20100;-67
2021/12/03 18:06:50;;;;;;;17.30;13.15;;;4.10;99.90;;;;;;5010953;28;20511;-66
2021/12/03 18:12:20;;;;;;;13.98;10.48;;;4.10;99.90;;;;;;5031281;28;20046;-68
2021/12/03 18:50:55;;;;;;;19.80;14.88;;;4.30;99.90;;;;;;5050277;28;20056;-68
2021/12/03 18:53:04;;;;;;;;;;;4.30;99.90;;;;;;5046407;28;20061;-68
2021/12/03 18:55:36;;;;;;;;;;;4.30;99.90;;;;;;5049174;28;19924;-69
2021/12/03 18:58:05;;;;;;;22.30;14.82;;;4.30;99.90;;;;;;5048238;28;19920;-68
2021/12/03 19:00:33;;;;;;;18.23;12.95;;;4.30;99.90;;;;;;5048584;28;20045;-68
2021/12/03 19:03:04;;;;;;;18.95;13.82;;;4.30;99.90;;;;;;5048606;28;20475;-69
2021/12/03 19:08:08;;;;;;;18.27;13.70;;;4.30;99.90;;;;;;5049960;28;20139;-68
2021/12/03 19:10:38;;;;;;;23.38;16.85;;;4.30;99.90;;;;;;5047427;28;20343;-68
2021/12/03 19:13:08;;;;;;;23.73;17.15;;;4.40;99.90;;;;;;5049899;28;20057;-68
2021/12/03 19:15:35;;;;;;;22.15;15.07;;;4.40;99.90;;;;;;5047911;28;20047;-68
2021/12/03 19:18:02;;;;;;;20.50;12.63;;;4.40;99.90;;;;;;5039395;28;20119;-68
2021/12/03 19:20:33;;;;;;;29.17;16.60;;;4.40;99.90;;;;;;5046261;28;20076;-67
2021/12/03 19:22:59;;;;;;;29.42;17.95;;;4.40;99.90;;;;;;5044190;28;20045;-68
2021/12/03 19:25:25;;;;;;;21.17;14.65;;;4.40;99.90;;;;;;5046674;28;20053;-67
2021/12/03 19:27:50;;;;;;;24.70;17.05;;;4.40;99.90;;;;;;5039941;28;20045;-68
2021/12/03 19:30:16;;;;;;;23.25;16.15;;;4.50;99.90;;;;;;5038365;28;20089;-67
2021/12/03 19:32:42;;;;;;;27.38;18.45;;;4.40;99.90;;;;;;5040837;28;20029;-67
2021/12/03 19:35:08;;;;;;;80.95;21.33;;;4.40;99.90;;;;;;5047744;28;20044;-67
2021/12/03 19:37:35;;;;;;;71.90;21.80;;;4.50;99.90;;;;;;5036926;28;20049;-67
2021/12/03 19:40:04;;;;;;;65.13;23.15;;;4.50;99.90;;;;;;5044158;28;20539;-67
2021/12/03 19:42:35;;;;;;;24.58;16.95;;;4.50;99.90;;;;;;5044611;28;20056;-68
2021/12/03 19:45:07;;;;;;;29.98;21.13;;;4.50;99.90;;;;;;5045597;28;20078;-67
2021/12/03 19:47:46;;;;;;;25.20;17.00;;;4.50;99.90;;;;;;5039443;28;20052;-68
2021/12/03 19:50:28;;;;;;;25.02;15.65;;;4.50;99.90;;;;;;5038476;28;20071;-68
2021/12/03 19:52:58;;;;;;;23.45;16.60;;;4.50;99.90;;;;;;5043066;28;20028;-68
2021/12/03 19:55:24;;;;;;;30.13;20.20;;;4.50;99.90;;;;;;5042394;28;20057;-68
2021/12/03 19:57:50;;;;;;;35.30;22.13;;;4.50;99.90;;;;;;5042259;28;20037;-68
2021/12/03 20:00:16;;;;;;;40.67;24.55;;;4.50;99.90;;;;;;5043898;28;20115;-68
2021/12/03 20:02:41;;;;;;;32.85;21.73;;;4.50;99.90;;;;;;5039091;28;20522;-67